Time;durP1;ratioP1;P1;durP2;ratioP2;P2;SDS_P1;SDS_P2;PMS_P1;PMS_P2;Temp;Humidity;BMP_temperature;BMP_pressure;BME280_temperature;BME280_humidity;BME280_pressure;Samples;Min_cycle;Max_cycle;Signal;HPM_P1;HPM_P2
2023/08/14 00:01:03;;;;;;;2.88;0.85;;;20.50;61.60;22.20;101460.00;;;;5047539;28;20195;-79
2023/08/14 00:03:30;;;;;;;1.70;0.80;;;20.50;61.60;22.10;101454.00;;;;5045829;28;20242;-79
2023/08/14 00:05:57;;;;;;;1.60;1.00;;;20.50;61.60;22.10;101446.00;;;;5048969;28;20199;-79
2023/08/14 00:08:26;;;;;;;2.17;1.10;;;20.40;61.70;22.10;101447.00;;;;5049280;28;20196;-79
2023/08/14 00:10:54;;;;;;;1.35;0.90;;;20.40;61.70;22.10;101437.00;;;;5041638;28;20192;-79
2023/08/14 00:13:22;;;;;;;2.08;1.17;;;20.40;61.60;22.10;101447.00;;;;5049372;28;20200;-79
2023/08/14 00:15:51;;;;;;;2.17;1.02;;;20.40;61.70;22.10;101449.00;;;;5046672;28;20243;-79
2023/08/14 00:18:18;;;;;;;1.33;1.00;;;20.40;61.80;22.00;101447.00;;;;5045069;28;20188;-79
2023/08/14 00:20:46;;;;;;;1.77;1.08;;;20.40;61.80;22.00;101448.00;;;;5046795;28;20603;-79
2023/08/14 00:23:13;;;;;;;1.95;1.00;;;20.30;61.70;22.00;101442.00;;;;5047869;28;20223;-79
2023/08/14 00:25:41;;;;;;;1.85;0.85;;;20.30;61.80;22.00;101450.00;;;;5047112;28;20668;-79
2023/08/14 00:28:08;;;;;;;1.77;1.00;;;20.30;61.90;22.00;101450.00;;;;5045835;28;20192;-79
2023/08/14 00:30:35;;;;;;;1.33;1.00;;;20.30;62.00;22.00;101440.00;;;;5048301;28;20202;-79
2023/08/14 00:33:02;;;;;;;1.90;1.20;;;20.30;62.00;22.00;101433.00;;;;5050104;28;20200;-79
2023/08/14 00:35:29;;;;;;;0.98;0.88;;;20.20;61.90;22.00;101426.00;;;;5048985;28;20203;-79
2023/08/14 00:37:56;;;;;;;2.22;1.17;;;20.20;62.00;21.90;101431.00;;;;5047244;28;20212;-79
2023/08/14 00:40:23;;;;;;;1.90;1.08;;;20.20;62.10;21.90;101428.00;;;;5045578;28;20223;-79
2023/08/14 00:42:53;;;;;;;1.52;1.25;;;20.20;62.10;21.90;101424.00;;;;5048220;28;20204;-80
2023/08/14 00:45:20;;;;;;;1.35;1.15;;;20.20;62.10;21.90;101433.00;;;;5049677;28;20230;-79
2023/08/14 00:47:48;;;;;;;1.75;1.45;;;20.20;62.20;21.90;101433.00;;;;5041029;28;20200;-79
2023/08/14 00:50:17;;;;;;;2.53;1.10;;;20.10;62.20;21.90;101426.00;;;;5045977;28;20200;-79
2023/08/14 00:52:48;;;;;;;4.63;2.35;;;20.20;62.30;21.80;101421.00;;;;5048545;28;20204;-80
2023/08/14 00:55:22;;;;;;;3.22;2.10;;;20.20;62.40;21.80;101420.00;;;;5044449;28;20207;-80
2023/08/14 00:57:51;;;;;;;1.75;1.48;;;20.10;62.30;21.80;101423.00;;;;5044951;28;20203;-79
2023/08/14 01:00:19;;;;;;;3.17;1.42;;;20.10;62.20;21.80;101423.00;;;;5040741;28;20196;-79
2023/08/14 01:02:49;;;;;;;4.65;1.88;;;20.10;62.30;21.80;101427.00;;;;5045944;28;20200;-79
2023/08/14 01:05:16;;;;;;;3.70;2.10;;;20.10;62.40;21.80;101429.00;;;;5046865;28;20237;-79
2023/08/14 01:07:43;;;;;;;1.95;1.77;;;20.10;62.50;21.80;101420.00;;;;5045996;28;20214;-79
2023/08/14 01:10:13;;;;;;;3.85;1.85;;;20.10;62.60;21.80;101421.00;;;;5042237;28;20196;-80
2023/08/14 01:12:49;;;;;;;2.47;1.73;;;20.10;62.60;21.70;101420.00;;;;5046197;28;20200;-79
2023/08/14 01:15:26;;;;;;;2.17;1.73;;;20.10;62.70;21.70;101417.00;;;;5044576;28;20581;-79
2023/08/14 01:18:00;;;;;;;2.40;2.20;;;20.10;62.80;21.70;101422.00;;;;5048244;28;20206;-79
2023/08/14 01:20:31;;;;;;;2.38;2.00;;;20.00;62.70;21.80;101419.00;;;;5048238;28;20199;-79
2023/08/14 01:23:07;;;;;;;4.32;2.40;;;20.10;62.80;21.70;101414.00;;;;5046307;28;20200;-79
2023/08/14 01:25:38;;;;;;;2.17;1.95;;;20.00;63.10;21.70;101421.00;;;;5047179;28;20604;-79
2023/08/14 01:28:07;;;;;;;2.85;2.53;;;20.10;63.00;21.80;101413.00;;;;5043283;28;20659;-79
2023/08/14 01:30:35;;;;;;;2.28;2.08;;;20.10;63.10;21.80;101410.00;;;;5046571;28;20196;-79
2023/08/14 01:33:02;;;;;;;3.50;2.63;;;20.10;63.10;21.80;101400.00;;;;5046063;28;20196;-79
2023/08/14 01:35:43;;;;;;;3.60;2.50;;;20.10;63.30;21.70;101408.00;;;;5047804;28;20202;-79
2023/08/14 01:38:20;;;;;;;3.13;2.50;;;20.10;63.60;21.70;101410.00;;;;5045862;28;20203;-79
2023/08/14 01:40:57;;;;;;;2.60;2.28;;;20.10;63.50;21.70;101396.00;;;;5048532;28;20203;-79
2023/08/14 01:43:31;;;;;;;3.70;2.47;;;20.10;63.40;21.80;101406.00;;;;5040637;28;20219;-79
2023/08/14 01:45:59;;;;;;;3.25;2.38;;;20.10;63.30;21.80;101400.00;;;;5039658;28;20224;-79
2023/08/14 01:48:27;;;;;;;2.75;2.40;;;20.10;63.30;21.80;101401.00;;;;5047689;28;20211;-79
2023/08/14 01:50:56;;;;;;;2.13;1.92;;;20.10;63.30;21.80;101392.00;;;;5047629;28;20191;-79
2023/08/14 01:53:23;;;;;;;2.78;2.45;;;20.10;63.30;21.80;101393.00;;;;5040199;28;20198;-79
2023/08/14 01:55:53;;;;;;;2.70;2.05;;;20.10;63.20;21.80;101381.00;;;;5047089;28;20202;-79
2023/08/14 01:58:20;;;;;;;2.58;2.28;;;20.10;63.30;21.80;101387.00;;;;5044263;28;20191;-79
2023/08/14 02:00:47;;;;;;;2.72;2.40;;;20.10;63.20;21.80;101386.00;;;;5047328;28;20788;-79
2023/08/14 02:03:14;;;;;;;2.47;2.28;;;20.10;63.20;21.80;101373.00;;;;5045377;28;20239;-79
2023/08/14 02:05:40;;;;;;;4.78;2.78;;;20.10;63.20;21.80;101366.00;;;;5047533;28;20200;-79
2023/08/14 02:08:07;;;;;;;4.63;2.75;;;20.10;63.20;21.80;101367.00;;;;5045339;28;20192;-79
2023/08/14 02:10:34;;;;;;;2.75;2.50;;;20.10;63.20;21.80;101361.00;;;;5047158;28;20698;-79
2023/08/14 02:13:03;;;;;;;3.58;2.75;;;20.00;63.20;21.70;101362.00;;;;5047330;28;20206;-78
2023/08/14 02:15:30;;;;;;;2.85;2.35;;;20.00;63.20;21.80;101362.00;;;;5046194;28;20221;-79
2023/08/14 02:17:57;;;;;;;3.15;2.85;;;20.00;63.20;21.70;101364.00;;;;5045969;28;20562;-79
2023/08/14 02:20:25;;;;;;;3.38;3.08;;;20.00;63.20;21.70;101362.00;;;;5044232;28;20566;-79
2023/08/14 02:22:52;;;;;;;5.72;3.63;;;20.00;63.30;21.70;101350.00;;;;5046133;28;20746;-79
2023/08/14 02:25:19;;;;;;;4.00;3.55;;;20.00;63.30;21.70;101349.00;;;;5038044;28;20232;-79
2023/08/14 02:27:46;;;;;;;5.00;3.50;;;20.00;63.40;21.70;101351.00;;;;5046086;28;20199;-79
2023/08/14 02:30:14;;;;;;;4.82;3.22;;;20.00;63.40;21.70;101342.00;;;;5045581;28;20210;-79
2023/08/14 02:32:41;;;;;;;3.70;3.28;;;20.00;63.50;21.70;101344.00;;;;5045562;28;20203;-80
2023/08/14 02:35:08;;;;;;;4.20;3.60;;;20.00;63.50;21.70;101344.00;;;;5041531;28;20192;-79
2023/08/14 02:37:35;;;;;;;4.70;3.45;;;20.00;63.50;21.70;101344.00;;;;5044555;28;20203;-80
2023/08/14 02:40:03;;;;;;;4.93;4.25;;;20.00;63.50;21.70;101343.00;;;;5038841;28;20202;-79
2023/08/14 02:42:30;;;;;;;5.78;3.75;;;20.00;63.50;21.70;101344.00;;;;5046788;28;20199;-80
2023/08/14 02:44:57;;;;;;;4.63;4.22;;;19.90;63.50;21.70;101347.00;;;;5046360;28;21029;-79
2023/08/14 02:47:25;;;;;;;4.45;3.75;;;19.90;63.50;21.70;101338.00;;;;5045238;28;20215;-80
2023/08/14 02:49:52;;;;;;;8.98;3.70;;;19.90;63.60;21.70;101343.00;;;;5045776;28;20191;-79
2023/08/14 02:52:19;;;;;;;4.15;3.63;;;20.00;63.70;21.70;101344.00;;;;5046968;28;20204;-80
2023/08/14 02:54:46;;;;;;;5.32;4.43;;;19.90;63.60;21.70;101345.00;;;;5045234;28;20207;-80
2023/08/14 02:57:13;;;;;;;4.43;3.75;;;19.90;63.70;21.60;101338.00;;;;5045420;28;20215;-79
2023/08/14 02:59:40;;;;;;;5.00;4.03;;;19.90;63.70;21.60;101347.00;;;;5047065;28;20574;-80
2023/08/14 03:02:07;;;;;;;6.95;4.32;;;19.90;63.70;21.60;101346.00;;;;5045896;28;20204;-80
2023/08/14 03:04:35;;;;;;;4.82;3.95;;;19.90;63.70;21.60;101350.00;;;;5046142;28;20231;-80
2023/08/14 03:07:03;;;;;;;5.40;4.30;;;19.90;63.80;21.60;101356.00;;;;5040071;28;20210;-80
2023/08/14 03:09:29;;;;;;;4.07;3.63;;;19.90;63.80;21.60;101349.00;;;;5044473;28;20988;-79
2023/08/14 03:11:56;;;;;;;4.57;3.97;;;19.90;63.80;21.60;101346.00;;;;5042012;28;20199;-80
2023/08/14 03:14:23;;;;;;;6.00;4.45;;;19.90;63.80;21.60;101348.00;;;;5045124;28;20237;-80
2023/08/14 03:16:51;;;;;;;7.03;4.15;;;19.90;63.90;21.60;101337.00;;;;5045531;28;20202;-79
2023/08/14 03:19:18;;;;;;;6.88;4.20;;;19.90;63.90;21.60;101341.00;;;;5038437;28;20682;-79
2023/08/14 03:21:50;;;;;;;4.60;3.80;;;19.80;63.80;21.60;101341.00;;;;5046678;28;20652;-79
2023/08/14 03:24:17;;;;;;;5.00;4.45;;;19.80;63.90;21.60;101336.00;;;;5045056;28;20250;-80
2023/08/14 03:26:44;;;;;;;3.92;3.63;;;19.90;63.90;21.60;101339.00;;;;5039188;28;20570;-79
2023/08/14 03:29:11;;;;;;;5.28;4.43;;;19.80;63.90;21.50;101340.00;;;;5041843;28;20199;-79
2023/08/14 03:31:38;;;;;;;5.07;4.05;;;19.90;63.90;21.60;101343.00;;;;5047424;28;20199;-80
2023/08/14 03:34:05;;;;;;;4.03;3.65;;;19.80;63.90;21.50;101347.00;;;;5049544;28;20195;-80
2023/08/14 03:36:32;;;;;;;4.72;3.83;;;19.80;63.80;21.50;101347.00;;;;5049073;28;20202;-80
2023/08/14 03:39:00;;;;;;;4.60;4.18;;;19.80;63.80;21.50;101357.00;;;;5050560;28;20663;-80
2023/08/14 03:41:27;;;;;;;4.70;3.83;;;19.80;63.90;21.50;101355.00;;;;5048140;28;20219;-80
2023/08/14 03:43:54;;;;;;;4.35;3.70;;;19.80;64.60;21.50;101348.00;;;;5047794;28;21627;-80
2023/08/14 03:46:21;;;;;;;4.53;4.10;;;19.80;63.90;21.50;101351.00;;;;5044810;28;20728;-80
2023/08/14 03:48:48;;;;;;;3.75;3.45;;;19.80;64.00;21.50;101350.00;;;;5050252;28;20192;-79
2023/08/14 03:51:15;;;;;;;5.00;4.13;;;19.80;64.60;21.50;101359.00;;;;5050593;28;20205;-80
2023/08/14 03:53:42;;;;;;;5.63;3.85;;;19.80;63.90;21.50;101350.00;;;;5048998;28;20574;-80
2023/08/14 03:56:10;;;;;;;7.07;4.50;;;19.70;63.90;21.50;101352.00;;;;5049815;28;20192;-80
2023/08/14 03:58:38;;;;;;;5.13;4.13;;;19.70;63.90;21.50;101347.00;;;;5050828;28;20202;-80
2023/08/14 04:01:05;;;;;;;5.35;3.97;;;19.70;63.90;21.40;101345.00;;;;5049726;28;20203;-80
2023/08/14 04:03:32;;;;;;;4.28;3.85;;;19.70;63.90;21.40;101347.00;;;;5045145;28;20231;-80
2023/08/14 04:06:02;;;;;;;5.30;4.38;;;19.70;63.90;21.40;101352.00;;;;5048974;28;20230;-79
2023/08/14 04:08:28;;;;;;;4.93;3.97;;;19.70;64.00;21.40;101347.00;;;;5049561;28;20780;-80
2023/08/14 04:10:57;;;;;;;4.70;4.20;;;19.70;64.10;21.40;101349.00;;;;5044497;28;20203;-80
2023/08/14 04:13:26;;;;;;;5.93;4.45;;;19.70;64.10;21.40;101344.00;;;;5050416;28;20249;-80
2023/08/14 04:15:59;;;;;;;5.75;4.05;;;19.70;64.10;21.40;101338.00;;;;5041532;28;20571;-80
2023/08/14 04:18:27;;;;;;;6.10;4.13;;;19.70;64.10;21.40;101344.00;;;;5049056;28;20208;-80
2023/08/14 04:20:54;;;;;;;4.75;4.20;;;19.70;64.20;21.40;101343.00;;;;5043015;28;20196;-80
2023/08/14 04:23:23;;;;;;;5.47;4.35;;;19.70;64.20;21.40;101338.00;;;;5042365;28;20222;-80
2023/08/14 04:25:51;;;;;;;5.38;4.88;;;19.70;64.30;21.40;101336.00;;;;5041640;28;20227;-80
2023/08/14 04:28:18;;;;;;;5.05;3.88;;;19.70;64.30;21.40;101340.00;;;;5048374;28;20211;-80
2023/08/14 04:30:46;;;;;;;5.25;4.60;;;19.70;64.30;21.40;101334.00;;;;5048528;28;20192;-80
2023/08/14 04:33:13;;;;;;;4.95;4.45;;;19.70;64.40;21.40;101330.00;;;;5048830;28;20199;-79
2023/08/14 04:35:41;;;;;;;4.85;4.22;;;19.70;64.40;21.40;101330.00;;;;5047432;28;20200;-80
2023/08/14 04:38:08;;;;;;;4.57;4.18;;;19.70;64.50;21.40;101337.00;;;;5048565;28;20210;-80
2023/08/14 04:40:35;;;;;;;7.68;4.88;;;19.70;64.50;21.40;101335.00;;;;5048500;28;20659;-80
2023/08/14 04:43:02;;;;;;;7.15;5.25;;;19.70;64.50;21.40;101327.00;;;;5047200;28;20664;-80
2023/08/14 04:45:29;;;;;;;5.72;4.78;;;19.70;64.50;21.40;101313.00;;;;5048013;28;20559;-79
2023/08/14 04:47:58;;;;;;;4.50;4.10;;;19.70;64.50;21.40;101316.00;;;;5047541;28;20200;-80
2023/08/14 04:50:24;;;;;;;5.63;4.28;;;19.70;64.60;21.50;101318.00;;;;5044704;28;20218;-79
2023/08/14 04:52:51;;;;;;;6.47;5.30;;;19.70;64.50;21.50;101316.00;;;;5047230;28;20222;-79
2023/08/14 04:55:18;;;;;;;6.30;4.30;;;19.70;64.60;21.50;101329.00;;;;5047930;28;20200;-80
2023/08/14 04:57:45;;;;;;;4.38;3.95;;;19.80;64.80;21.50;101320.00;;;;5050656;28;20184;-80
2023/08/14 05:00:14;;;;;;;7.95;5.85;;;19.70;64.70;21.50;101319.00;;;;5044664;28;20282;-80
2023/08/14 05:02:42;;;;;;;4.97;4.43;;;19.80;64.80;21.60;101325.00;;;;5045275;28;20197;-80
2023/08/14 05:05:10;;;;;;;7.00;4.82;;;19.80;65.00;21.60;101315.00;;;;5047827;28;20239;-79
2023/08/14 05:07:37;;;;;;;4.80;4.35;;;19.90;65.10;21.60;101312.00;;;;5044769;28;20198;-80
2023/08/14 05:10:05;;;;;;;5.60;4.43;;;19.90;65.20;21.60;101313.00;;;;5036178;28;20196;-79
2023/08/14 05:12:32;;;;;;;6.35;4.93;;;19.90;65.30;21.70;101316.00;;;;5048429;28;20763;-79
2023/08/14 05:14:59;;;;;;;11.65;5.75;;;20.00;65.40;21.70;101311.00;;;;5048869;28;20194;-80
2023/08/14 05:17:26;;;;;;;6.22;5.20;;;20.00;65.40;21.70;101313.00;;;;5048497;28;20579;-80
2023/08/14 05:19:53;;;;;;;5.85;5.30;;;20.00;65.50;21.80;101308.00;;;;5047846;28;20200;-80
2023/08/14 05:22:22;;;;;;;6.50;4.78;;;20.10;65.60;21.80;101312.00;;;;5048236;28;20200;-80
2023/08/14 05:24:49;;;;;;;5.63;4.75;;;20.10;65.70;21.80;101306.00;;;;5048027;28;20253;-80
2023/08/14 05:27:16;;;;;;;6.15;5.03;;;20.10;66.40;21.90;101307.00;;;;5043951;28;20230;-80
2023/08/14 05:29:43;;;;;;;5.25;4.75;;;20.20;65.70;21.90;101306.00;;;;5046828;28;20200;-80
2023/08/14 05:32:09;;;;;;;8.23;5.15;;;20.20;65.80;22.00;101303.00;;;;5048885;28;20546;-80
2023/08/14 05:34:37;;;;;;;6.10;5.32;;;20.30;65.80;22.00;101309.00;;;;5049043;28;20730;-80
2023/08/14 05:37:04;;;;;;;5.65;4.90;;;20.30;65.90;22.10;101306.00;;;;5045547;28;20198;-80
2023/08/14 05:39:32;;;;;;;6.40;4.78;;;20.40;66.00;22.10;101301.00;;;;5043874;28;20230;-80
2023/08/14 05:41:59;;;;;;;6.47;5.68;;;20.40;66.00;22.20;101301.00;;;;5048551;28;20199;-80
2023/08/14 05:44:26;;;;;;;6.40;5.03;;;20.40;65.90;22.20;101301.00;;;;5047158;28;20203;-79
2023/08/14 05:46:53;;;;;;;5.72;5.07;;;20.50;65.90;22.20;101303.00;;;;5047539;28;20813;-79
2023/08/14 05:49:21;;;;;;;6.05;5.10;;;20.50;65.90;22.30;101306.00;;;;5047546;28;20674;-80
2023/08/14 05:51:48;;;;;;;5.30;4.35;;;20.60;65.90;22.30;101307.00;;;;5047997;28;20195;-79
2023/08/14 05:54:15;;;;;;;8.02;6.00;;;20.60;65.90;22.40;101306.00;;;;5047379;28;20203;-79
2023/08/14 05:56:45;;;;;;;4.80;4.28;;;20.70;65.90;22.40;101312.00;;;;5047260;28;21034;-80
2023/08/14 05:59:12;;;;;;;5.65;5.07;;;20.70;66.00;22.50;101316.00;;;;5043794;28;20299;-80
2023/08/14 06:01:39;;;;;;;8.05;5.80;;;20.80;65.90;22.50;101324.00;;;;5046280;28;20214;-79
2023/08/14 06:04:07;;;;;;;7.70;6.28;;;20.80;65.90;22.50;101319.00;;;;5047412;28;20281;-79
2023/08/14 06:06:34;;;;;;;5.53;4.93;;;20.80;65.90;22.60;101322.00;;;;5047688;28;20422;-80
2023/08/14 06:09:02;;;;;;;6.40;5.63;;;20.90;65.90;22.60;101326.00;;;;5045453;28;20629;-79
2023/08/14 06:11:31;;;;;;;7.65;5.25;;;20.90;65.90;22.60;101324.00;;;;5046622;28;20660;-80
2023/08/14 06:13:59;;;;;;;5.47;4.95;;;21.00;65.90;22.70;101329.00;;;;5046140;28;20200;-80
2023/08/14 06:16:26;;;;;;;9.88;5.60;;;21.00;65.90;22.80;101332.00;;;;5046680;28;20566;-81
2023/08/14 06:18:53;;;;;;;5.47;4.95;;;21.10;65.90;22.80;101325.00;;;;5045292;28;20210;-80
2023/08/14 06:21:20;;;;;;;5.40;4.90;;;21.10;65.90;22.80;101334.00;;;;5045137;28;20204;-80
2023/08/14 06:23:47;;;;;;;5.72;5.20;;;21.10;65.90;22.90;101337.00;;;;5044860;28;20203;-80
2023/08/14 06:26:14;;;;;;;8.35;5.13;;;21.20;65.90;22.90;101350.00;;;;5039399;28;20227;-80
2023/08/14 06:28:41;;;;;;;7.18;5.97;;;21.20;65.90;23.00;101344.00;;;;5041857;28;20192;-80
2023/08/14 06:31:10;;;;;;;7.80;5.88;;;21.20;65.90;23.00;101344.00;;;;5043896;28;20683;-80
2023/08/14 06:33:37;;;;;;;9.02;6.07;;;21.30;66.10;23.10;101343.00;;;;5045703;28;20191;-79
2023/08/14 06:36:04;;;;;;;6.28;5.65;;;21.40;66.10;23.10;101344.00;;;;5044300;28;20215;-80
2023/08/14 06:38:31;;;;;;;5.28;4.78;;;21.40;66.10;23.20;101348.00;;;;5046894;28;20199;-76
2023/08/14 06:40:58;;;;;;;6.03;5.43;;;21.50;66.10;23.30;101347.00;;;;5039801;28;20652;-76
2023/08/14 06:43:25;;;;;;;8.48;6.10;;;21.50;66.00;23.30;101340.00;;;;5046806;28;20206;-76
2023/08/14 06:45:52;;;;;;;7.90;6.75;;;21.60;66.10;23.40;101345.00;;;;5040160;28;20247;-76
2023/08/14 06:48:21;;;;;;;8.05;5.38;;;21.60;66.00;23.40;101339.00;;;;5043109;28;20210;-77
2023/08/14 06:50:48;;;;;;;6.95;5.32;;;21.70;66.10;23.50;101333.00;;;;5045800;28;20283;-76
2023/08/14 06:53:16;;;;;;;9.77;7.05;;;21.70;66.00;23.50;101334.00;;;;5042614;28;20949;-76
2023/08/14 06:55:48;;;;;;;6.32;5.72;;;21.80;66.30;23.50;101325.00;;;;5042371;28;20570;-78
2023/08/14 06:58:15;;;;;;;8.07;5.88;;;21.90;66.50;23.70;101326.00;;;;5042598;28;20269;-77
2023/08/14 07:00:42;;;;;;;7.57;5.45;;;21.90;66.40;23.80;101335.00;;;;5046050;28;20200;-77
2023/08/14 07:03:09;;;;;;;7.45;5.45;;;22.00;66.40;23.80;101329.00;;;;5046719;28;20226;-78
2023/08/14 07:05:37;;;;;;;7.40;5.53;;;22.10;66.30;23.90;101329.00;;;;5042144;28;20215;-78
2023/08/14 07:08:04;;;;;;;6.03;5.07;;;22.20;66.30;23.90;101328.00;;;;5046215;28;20215;-78
2023/08/14 07:10:31;;;;;;;9.52;5.80;;;22.30;66.20;24.00;101329.00;;;;5048804;28;20299;-78
2023/08/14 07:12:58;;;;;;;8.05;5.82;;;22.30;66.10;24.10;101337.00;;;;5044693;28;20203;-78
2023/08/14 07:15:26;;;;;;;6.38;5.53;;;22.40;66.00;24.10;101344.00;;;;5048455;28;20207;-76
2023/08/14 07:17:53;;;;;;;9.80;6.05;;;22.50;65.90;24.20;101347.00;;;;5049703;28;20615;-79
2023/08/14 07:20:20;;;;;;;7.53;5.95;;;22.50;65.80;24.20;101341.00;;;;5047190;28;20969;-79
2023/08/14 07:22:49;;;;;;;6.25;5.63;;;22.50;65.80;24.30;101345.00;;;;5046741;28;20207;-79
2023/08/14 07:25:16;;;;;;;7.35;6.20;;;22.60;65.80;24.30;101343.00;;;;5048980;28;20698;-80
2023/08/14 07:27:43;;;;;;;8.20;6.28;;;22.70;65.60;24.40;101333.00;;;;5047333;28;20238;-77
2023/08/14 07:30:11;;;;;;;9.80;6.47;;;22.70;65.50;24.40;101335.00;;;;5046825;28;20200;-77
2023/08/14 07:32:38;;;;;;;8.18;6.45;;;22.80;65.70;24.60;101341.00;;;;5049496;28;20227;-78
2023/08/14 07:35:07;;;;;;;7.32;5.95;;;22.90;65.80;24.60;101333.00;;;;5045858;28;20203;-79
2023/08/14 07:37:34;;;;;;;10.45;7.18;;;22.90;65.80;24.70;101333.00;;;;5047577;28;20219;-79
2023/08/14 07:40:02;;;;;;;6.40;5.63;;;23.00;65.80;24.80;101327.00;;;;5046984;28;20210;-79
2023/08/14 07:42:29;;;;;;;7.60;6.35;;;23.10;65.60;24.90;101330.00;;;;5045006;28;20193;-78
2023/08/14 07:44:56;;;;;;;7.00;5.30;;;23.20;65.50;24.90;101343.00;;;;5043596;28;20196;-78
2023/08/14 07:47:23;;;;;;;8.18;5.65;;;23.20;65.30;25.00;101345.00;;;;5041061;28;20226;-79
2023/08/14 07:49:51;;;;;;;6.45;5.45;;;23.30;65.20;25.10;101346.00;;;;5047320;28;20200;-78
2023/08/14 07:52:18;;;;;;;6.28;5.35;;;23.40;65.30;25.20;101355.00;;;;5042951;28;20191;-79
2023/08/14 07:54:44;;;;;;;5.47;4.93;;;23.50;65.30;25.30;101349.00;;;;5049258;28;20196;-77
2023/08/14 07:57:13;;;;;;;6.10;4.78;;;23.50;65.20;25.30;101360.00;;;;5042685;28;20196;-77
2023/08/14 07:59:42;;;;;;;8.23;4.97;;;23.70;65.20;25.50;101361.00;;;;5045545;28;20211;-77
2023/08/14 08:02:09;;;;;;;5.65;5.05;;;23.70;65.20;25.60;101365.00;;;;5047541;28;20184;-77
2023/08/14 08:04:36;;;;;;;5.63;5.00;;;23.80;65.20;25.70;101363.00;;;;5046227;28;20243;-77
2023/08/14 08:07:03;;;;;;;6.70;4.90;;;24.00;65.40;25.80;101360.00;;;;5043523;28;20226;-77
2023/08/14 08:09:30;;;;;;;8.45;4.80;;;24.10;65.30;25.90;101357.00;;;;5046224;28;20207;-78
2023/08/14 08:11:57;;;;;;;5.55;4.85;;;24.20;65.00;26.00;101346.00;;;;5041571;28;20195;-77
2023/08/14 08:14:27;;;;;;;6.95;4.93;;;24.30;64.80;26.10;101335.00;;;;5047996;28;20205;-77
2023/08/14 08:16:54;;;;;;;6.75;4.45;;;24.40;64.60;26.20;101328.00;;;;5028105;28;20235;-77
2023/08/14 08:19:22;;;;;;;6.75;4.72;;;24.50;64.40;26.30;101328.00;;;;5044968;28;20208;-77
2023/08/14 08:21:49;;;;;;;5.53;4.53;;;24.60;64.20;26.40;101322.00;;;;5046385;28;20254;-77
2023/08/14 08:24:16;;;;;;;7.95;3.83;;;24.70;64.10;26.50;101318.00;;;;5047401;28;20207;-77
2023/08/14 08:26:43;;;;;;;4.70;3.47;;;24.80;63.90;26.60;101309.00;;;;5044434;28;20227;-77
2023/08/14 08:29:11;;;;;;;6.65;4.72;;;24.90;63.80;26.70;101313.00;;;;5043954;28;20576;-78
2023/08/14 08:31:39;;;;;;;6.03;3.80;;;25.00;63.50;26.70;101321.00;;;;5045693;28;20206;-77
2023/08/14 08:34:06;;;;;;;5.82;3.63;;;25.10;63.30;26.90;101323.00;;;;5041296;28;20203;-78
2023/08/14 08:36:33;;;;;;;8.73;4.05;;;25.20;63.30;27.00;101322.00;;;;5045097;28;20612;-77
2023/08/14 08:39:00;;;;;;;6.28;3.20;;;25.30;63.20;27.00;101320.00;;;;5043024;28;20196;-78
2023/08/14 08:41:32;;;;;;;3.38;2.97;;;25.40;63.50;27.10;101316.00;;;;5043053;28;20199;-78
2023/08/14 08:44:07;;;;;;;5.43;3.42;;;25.50;62.60;27.20;101317.00;;;;5042770;28;20204;-79
2023/08/14 08:46:37;;;;;;;7.57;3.45;;;25.60;62.50;27.30;101311.00;;;;5038614;28;20223;-78
2023/08/14 08:49:08;;;;;;;5.90;3.35;;;25.70;62.30;27.40;101320.00;;;;5041693;28;20195;-79
2023/08/14 08:51:38;;;;;;;9.70;3.55;;;25.80;62.20;27.50;101310.00;;;;5044605;28;20202;-78
2023/08/14 08:54:06;;;;;;;5.05;3.22;;;25.90;62.20;27.60;101306.00;;;;5040475;28;20711;-78
2023/08/14 08:56:35;;;;;;;5.80;3.67;;;26.00;61.90;27.70;101303.00;;;;5046887;28;20206;-78
2023/08/14 08:59:03;;;;;;;4.18;2.35;;;26.20;61.80;27.90;101303.00;;;;5044154;28;20203;-77
2023/08/14 09:01:30;;;;;;;5.15;2.95;;;26.20;61.90;28.00;101303.00;;;;5045466;28;20192;-77
2023/08/14 09:03:57;;;;;;;4.57;3.00;;;26.40;61.80;28.10;101304.00;;;;5045070;28;20227;-78
2023/08/14 09:06:26;;;;;;;6.90;3.50;;;26.50;61.60;28.20;101305.00;;;;5044965;28;20227;-78
2023/08/14 09:08:53;;;;;;;4.40;2.58;;;26.60;60.90;28.30;101303.00;;;;5046009;28;21012;-78
2023/08/14 09:11:20;;;;;;;6.93;3.30;;;26.70;60.70;28.30;101302.00;;;;5045757;28;20207;-77
2023/08/14 09:13:48;;;;;;;11.25;2.95;;;26.80;60.50;28.40;101303.00;;;;5045746;28;20235;-77
2023/08/14 09:16:16;;;;;;;8.05;2.75;;;26.90;60.10;28.50;101305.00;;;;5043098;28;20207;-77
2023/08/14 09:18:43;;;;;;;5.72;3.50;;;26.90;59.90;28.60;101309.00;;;;5045153;28;20199;-78
2023/08/14 09:21:11;;;;;;;9.48;3.67;;;27.10;59.70;28.60;101308.00;;;;5042380;28;20714;-78
2023/08/14 09:23:41;;;;;;;8.10;3.60;;;27.20;59.30;28.60;101327.00;;;;5038502;28;20285;-78
2023/08/14 09:26:08;;;;;;;6.50;3.75;;;27.20;59.10;28.70;101326.00;;;;5042419;28;20720;-78
2023/08/14 09:28:37;;;;;;;9.55;3.90;;;27.30;59.10;28.80;101324.00;;;;5042279;28;20200;-78
2023/08/14 09:31:08;;;;;;;5.03;3.40;;;27.40;59.10;28.90;101317.00;;;;5041884;28;20196;-78
2023/08/14 09:33:36;;;;;;;5.18;3.65;;;27.50;59.00;29.00;101321.00;;;;5043117;28;20204;-78
2023/08/14 09:36:04;;;;;;;5.63;3.25;;;27.50;59.00;29.10;101324.00;;;;5040264;28;20214;-78
2023/08/14 09:38:31;;;;;;;4.15;3.20;;;27.60;59.00;29.20;101321.00;;;;5046080;28;20234;-78
2023/08/14 09:41:02;;;;;;;7.10;2.97;;;27.70;58.90;29.30;101322.00;;;;5040779;28;20612;-78
2023/08/14 09:43:32;;;;;;;3.65;2.60;;;27.90;58.80;29.40;101319.00;;;;5039414;28;20204;-79
2023/08/14 09:46:01;;;;;;;3.60;2.72;;;27.90;58.40;29.50;101315.00;;;;5043859;28;20714;-78
2023/08/14 09:48:41;;;;;;;3.47;2.88;;;28.10;58.50;29.60;101311.00;;;;5041852;28;20203;-80
2023/08/14 09:51:12;;;;;;;4.50;2.40;;;28.10;57.80;29.70;101304.00;;;;5045214;28;20199;-78
2023/08/14 09:53:49;;;;;;;4.15;2.63;;;28.20;57.70;29.70;101298.00;;;;5044820;28;20269;-78
2023/08/14 09:56:19;;;;;;;3.95;2.30;;;28.30;58.10;29.80;101297.00;;;;5046313;28;20567;-78
2023/08/14 09:58:48;;;;;;;9.27;2.53;;;28.40;57.60;29.80;101296.00;;;;5042796;28;20200;-78
2023/08/14 10:01:17;;;;;;;3.60;2.25;;;28.40;57.30;29.80;101293.00;;;;5042453;28;20204;-79
2023/08/14 10:03:49;;;;;;;5.95;2.28;;;28.40;57.20;29.80;101281.00;;;;5044024;28;20223;-79
2023/08/14 10:06:19;;;;;;;4.35;2.33;;;28.40;57.00;29.80;101281.00;;;;5045950;28;20227;-78
2023/08/14 10:08:51;;;;;;;5.38;2.72;;;28.50;56.80;29.90;101281.00;;;;5043560;28;20226;-77
2023/08/14 10:11:21;;;;;;;4.13;2.28;;;28.50;56.60;30.00;101274.00;;;;5041689;28;20219;-77
2023/08/14 10:13:53;;;;;;;4.22;2.13;;;28.60;56.90;30.00;101276.00;;;;5041155;28;20200;-78
2023/08/14 10:16:24;;;;;;;2.60;1.77;;;28.60;56.50;30.10;101270.00;;;;5042480;28;20204;-78
2023/08/14 10:18:56;;;;;;;4.85;2.08;;;28.70;56.00;30.20;101262.00;;;;5034486;28;20273;-78
2023/08/14 10:21:26;;;;;;;5.57;1.67;;;28.80;55.80;30.30;101280.00;;;;5044884;28;20200;-78
2023/08/14 10:23:59;;;;;;;2.35;1.27;;;28.90;55.90;30.30;101273.00;;;;5038564;28;20253;-78
2023/08/14 10:26:28;;;;;;;4.03;2.05;;;29.00;55.80;30.50;101273.00;;;;5044398;28;20231;-78
2023/08/14 10:28:57;;;;;;;5.85;1.52;;;29.10;55.60;30.50;101272.00;;;;5044686;28;20678;-78
2023/08/14 10:31:25;;;;;;;2.40;1.20;;;29.20;55.40;30.60;101269.00;;;;5040090;28;20192;-77
2023/08/14 10:33:53;;;;;;;6.05;1.70;;;29.20;55.20;30.70;101271.00;;;;5039397;28;20199;-77
2023/08/14 10:36:22;;;;;;;2.13;1.50;;;29.30;54.70;30.80;101270.00;;;;5046148;28;20200;-78
2023/08/14 10:38:50;;;;;;;3.83;1.80;;;29.40;54.90;30.80;101270.00;;;;5045090;28;20195;-78
2023/08/14 10:41:18;;;;;;;3.33;1.40;;;29.50;54.50;30.90;101264.00;;;;5041489;28;20227;-78
2023/08/14 10:43:51;;;;;;;2.40;1.00;;;29.50;54.00;30.90;101268.00;;;;5040571;28;20203;-78
2023/08/14 10:46:19;;;;;;;3.17;1.33;;;29.60;53.30;31.00;101258.00;;;;5045528;28;20227;-79
2023/08/14 10:48:50;;;;;;;3.65;1.45;;;29.70;53.60;31.00;101255.00;;;;5038097;28;20188;-78
2023/08/14 10:51:22;;;;;;;5.00;1.25;;;29.70;53.10;31.10;101251.00;;;;5043055;28;20199;-79